createdAt,value
2018-10-16T00:00:15.596Z,5.97
2018-10-16T00:05:18.949Z,5.57
2018-10-16T00:10:27.712Z,6.07
2018-10-16T00:15:30.967Z,5.60
2018-10-16T00:20:34.235Z,5.47
2018-10-16T00:25:37.495Z,5.00
2018-10-16T00:30:40.747Z,5.40
2018-10-16T00:35:44.068Z,5.00
2018-10-16T00:40:47.309Z,6.03
2018-10-16T00:45:50.605Z,5.37
2018-10-16T00:50:53.867Z,5.87
2018-10-16T00:55:57.108Z,5.20
2018-10-16T01:01:00.370Z,6.40
2018-10-16T01:06:03.641Z,5.10
2018-10-16T01:11:10.593Z,5.07
2018-10-16T01:16:13.816Z,5.50
2018-10-16T01:21:17.177Z,5.27
2018-10-16T01:26:20.395Z,5.70
2018-10-16T01:31:23.628Z,5.67
2018-10-16T01:36:26.856Z,5.37
2018-10-16T01:41:30.072Z,5.80
2018-10-16T01:46:33.339Z,5.77
2018-10-16T01:51:36.622Z,6.53
2018-10-16T01:56:39.832Z,5.90
2018-10-16T02:01:43.097Z,5.43
2018-10-16T02:06:46.324Z,6.27
2018-10-16T02:11:49.524Z,5.47
2018-10-16T02:16:52.892Z,5.10
2018-10-16T02:21:56.040Z,5.80
2018-10-16T02:26:59.279Z,5.50
2018-10-16T02:32:02.508Z,5.83
2018-10-16T02:37:05.993Z,5.27
2018-10-16T02:42:09.496Z,5.30
2018-10-16T02:47:12.745Z,5.70
2018-10-16T02:52:15.951Z,5.23
2018-10-16T02:57:19.156Z,5.80
2018-10-16T03:02:22.373Z,6.10
2018-10-16T03:07:25.602Z,6.60
2018-10-16T03:12:28.808Z,6.23
2018-10-16T03:17:32.028Z,5.57
2018-10-16T03:22:35.233Z,6.20
2018-10-16T03:27:38.884Z,5.80
2018-10-16T03:32:42.286Z,5.90
2018-10-16T03:37:45.480Z,5.57
2018-10-16T03:42:48.688Z,6.67
2018-10-16T03:47:51.909Z,5.57
2018-10-16T03:52:55.229Z,5.57
2018-10-16T03:57:58.428Z,5.53
2018-10-16T04:03:01.648Z,5.97
2018-10-16T04:08:04.921Z,5.37
2018-10-16T04:13:08.277Z,6.13
2018-10-16T04:18:11.481Z,6.77
2018-10-16T04:23:14.725Z,5.90
2018-10-16T04:28:17.929Z,6.80
2018-10-16T04:33:21.135Z,5.60
2018-10-16T04:38:24.332Z,6.20
2018-10-16T04:43:27.749Z,5.57
2018-10-16T04:48:30.977Z,5.20
2018-10-16T04:53:34.193Z,6.70
2018-10-16T04:58:37.477Z,5.63
2018-10-16T05:03:40.710Z,6.60
2018-10-16T05:08:43.965Z,6.03
2018-10-16T05:13:47.212Z,6.58
2018-10-16T05:18:50.450Z,6.00
2018-10-16T05:23:53.657Z,6.00
2018-10-16T05:28:56.861Z,6.03
2018-10-16T05:34:00.065Z,6.10
2018-10-16T05:39:04.516Z,6.00
2018-10-16T05:44:08.017Z,6.47
2018-10-16T05:49:11.224Z,6.37
2018-10-16T05:54:14.438Z,7.00
2018-10-16T05:59:17.613Z,7.33
2018-10-16T06:04:20.840Z,5.77
2018-10-16T06:09:24.041Z,6.53
2018-10-16T06:14:27.261Z,6.73
2018-10-16T06:19:30.472Z,5.93
2018-10-16T06:24:33.728Z,6.37
2018-10-16T06:29:36.850Z,7.00
2018-10-16T06:34:40.053Z,6.83
2018-10-16T06:39:43.253Z,6.80
2018-10-16T06:44:46.506Z,7.20
2018-10-16T06:49:50.044Z,6.50
2018-10-16T06:54:53.319Z,6.30
2018-10-16T06:59:56.468Z,6.63
2018-10-16T07:04:59.681Z,6.00
2018-10-16T07:10:02.899Z,6.90
2018-10-16T07:15:06.399Z,7.43
2018-10-16T07:20:09.805Z,6.00
2018-10-16T07:25:13.032Z,6.50
2018-10-16T07:30:16.818Z,7.37
2018-10-16T07:35:19.941Z,7.00
2018-10-16T07:40:23.132Z,7.70
2018-10-16T07:45:26.349Z,6.70
2018-10-16T07:50:29.611Z,6.40
2018-10-16T07:55:32.909Z,6.80
2018-10-16T08:00:36.101Z,6.40
2018-10-16T08:05:39.304Z,7.10
2018-10-16T08:10:42.505Z,6.87
2018-10-16T08:15:45.717Z,7.30
2018-10-16T08:20:48.918Z,6.70
2018-10-16T08:25:52.111Z,6.57
2018-10-16T08:30:55.316Z,6.80
2018-10-16T08:35:58.614Z,7.30
2018-10-16T08:41:01.781Z,6.30
2018-10-16T08:46:16.525Z,6.50
2018-10-16T08:51:30.216Z,5.87
2018-10-16T08:56:33.449Z,6.07
2018-10-16T09:01:36.677Z,8.60
2018-10-16T09:06:39.903Z,11.23
2018-10-16T09:11:45.301Z,8.57
2018-10-16T09:16:48.493Z,8.87
2018-10-16T09:21:51.716Z,8.20
2018-10-16T09:26:54.923Z,9.80
2018-10-16T09:31:58.149Z,8.40
2018-10-16T09:37:01.377Z,7.13
2018-10-16T09:42:04.717Z,8.40
2018-10-16T09:47:07.906Z,7.20
2018-10-16T09:52:11.120Z,7.20
2018-10-16T09:57:14.324Z,7.93
2018-10-16T10:02:17.532Z,7.90
2018-10-16T10:07:20.768Z,7.30
2018-10-16T10:12:23.967Z,8.57
2018-10-16T10:17:27.207Z,7.57
2018-10-16T10:22:30.431Z,8.67
2018-10-16T10:27:33.664Z,7.73
2018-10-16T10:32:36.910Z,7.60
2018-10-16T10:37:40.150Z,9.77
2018-10-16T10:42:43.361Z,9.97
2018-10-16T10:47:46.585Z,9.20
2018-10-16T10:52:49.809Z,10.40
2018-10-16T10:57:53.004Z,9.57
2018-10-16T11:02:56.279Z,7.00
2018-10-16T11:07:59.429Z,6.30
2018-10-16T11:13:02.628Z,6.70
2018-10-16T11:18:05.840Z,8.53
2018-10-16T11:23:09.031Z,8.93
2018-10-16T11:28:12.209Z,6.23
2018-10-16T11:33:15.507Z,6.37
2018-10-16T11:38:18.695Z,7.10
2018-10-16T11:43:22.275Z,8.23
2018-10-16T11:48:25.459Z,9.80
2018-10-16T11:53:29.040Z,8.88
2018-10-16T11:58:32.257Z,8.03
2018-10-16T12:03:35.464Z,8.13
2018-10-16T12:08:45.409Z,7.13
2018-10-16T12:13:48.604Z,7.73
2018-10-16T12:18:58.129Z,9.23
2018-10-16T12:24:01.313Z,7.07
2018-10-16T12:29:04.779Z,7.10
2018-10-16T12:34:07.952Z,8.30
2018-10-16T12:39:11.200Z,7.30
2018-10-16T12:44:14.328Z,7.67
2018-10-16T12:49:17.521Z,6.17
2018-10-16T12:54:20.749Z,8.00
2018-10-16T12:59:23.941Z,8.17
2018-10-16T13:04:27.140Z,8.70
2018-10-16T13:09:30.316Z,9.20
2018-10-16T13:14:33.500Z,8.03
2018-10-16T15:26:32.132Z,8.87
2018-10-16T15:31:41.688Z,8.37
2018-10-16T15:36:44.900Z,7.90
2018-10-16T15:41:48.080Z,8.47
2018-10-16T15:46:51.264Z,8.00
2018-10-16T15:51:54.507Z,8.20
2018-10-16T15:56:57.631Z,8.53
2018-10-16T16:02:00.814Z,6.73
2018-10-16T16:07:03.999Z,7.10
2018-10-16T16:12:07.244Z,8.20
2018-10-16T16:17:10.400Z,7.90
2018-10-16T16:22:13.675Z,8.03
2018-10-16T16:27:16.755Z,9.00
2018-10-16T16:32:20.050Z,8.33
2018-10-16T16:37:23.149Z,8.83
2018-10-16T16:42:26.328Z,8.63
2018-10-16T16:47:29.537Z,10.33
2018-10-16T16:52:32.736Z,9.03
2018-10-16T16:57:35.926Z,11.17
2018-10-16T17:02:39.555Z,8.40
2018-10-16T17:07:43.319Z,8.80
2018-10-16T17:12:46.517Z,9.30
2018-10-16T17:17:49.806Z,9.87
2018-10-16T17:22:52.928Z,7.53
2018-10-16T17:27:56.146Z,9.17
2018-10-16T17:32:59.369Z,7.63
2018-10-16T17:38:02.513Z,7.60
2018-10-16T17:43:06.022Z,6.90
2018-10-16T17:48:09.325Z,7.70
2018-10-16T17:53:12.460Z,7.30
2018-10-16T17:58:15.672Z,7.97
2018-10-16T18:03:18.967Z,7.87
2018-10-16T18:08:22.193Z,8.00
2018-10-16T18:13:25.454Z,7.77
2018-10-16T18:18:28.660Z,7.67
2018-10-16T18:23:32.113Z,7.43
2018-10-16T18:28:35.332Z,6.57
2018-10-16T18:33:38.575Z,7.70
2018-10-16T18:38:41.829Z,6.50
2018-10-16T18:43:45.172Z,6.40
2018-10-16T18:48:48.488Z,7.67
2018-10-16T18:53:51.865Z,7.03
2018-10-16T18:58:55.140Z,6.23
2018-10-16T19:03:58.371Z,6.97
2018-10-16T19:09:01.642Z,6.50
2018-10-16T19:14:05.421Z,7.07
2018-10-16T19:19:08.612Z,6.73
2018-10-16T19:24:11.814Z,6.37
2018-10-16T19:29:15.017Z,6.80
2018-10-16T19:34:18.496Z,7.77
2018-10-16T19:39:21.730Z,6.27
2018-10-16T19:44:25.055Z,6.93
2018-10-16T19:49:28.304Z,6.90
2018-10-16T19:54:31.557Z,7.60
2018-10-16T19:59:34.833Z,7.00
2018-10-16T20:04:38.653Z,6.00
2018-10-16T20:09:41.864Z,6.50
2018-10-16T20:14:45.203Z,6.40
2018-10-16T20:19:49.037Z,6.53
2018-10-16T20:24:52.356Z,5.90
2018-10-16T20:29:55.530Z,6.70
2018-10-16T20:34:58.837Z,6.77
2018-10-16T20:40:02.037Z,6.37
2018-10-16T20:45:05.470Z,5.80
2018-10-16T20:50:08.665Z,6.97
2018-10-16T20:55:12.039Z,6.03
2018-10-16T21:00:15.153Z,5.87
2018-10-16T21:05:18.689Z,7.67
2018-10-16T21:10:21.652Z,6.40
2018-10-16T21:15:24.864Z,6.70
2018-10-16T21:20:28.054Z,7.30
2018-10-16T21:25:31.256Z,6.93
2018-10-16T21:30:34.452Z,6.73
2018-10-16T21:35:37.660Z,6.27
2018-10-16T21:40:40.884Z,6.70
2018-10-16T21:45:44.549Z,6.23
2018-10-16T21:50:47.736Z,7.00
2018-10-16T21:55:50.941Z,6.10
2018-10-16T22:00:59.419Z,7.37
2018-10-16T22:06:02.541Z,6.57
2018-10-16T22:11:06.127Z,6.70
2018-10-16T22:16:09.268Z,6.17
2018-10-16T22:21:12.480Z,6.20
2018-10-16T22:26:15.684Z,6.87
2018-10-16T22:31:18.934Z,6.73
2018-10-16T22:36:22.173Z,6.60
2018-10-16T22:41:25.386Z,6.40
2018-10-16T22:46:28.584Z,6.43
2018-10-16T22:51:31.809Z,6.50
2018-10-16T22:56:34.980Z,6.40
2018-10-16T23:01:38.188Z,6.27
2018-10-16T23:06:41.376Z,6.50
2018-10-16T23:11:44.580Z,6.73
2018-10-16T23:16:47.795Z,5.90
2018-10-16T23:21:51.061Z,6.37
2018-10-16T23:26:54.289Z,5.87
2018-10-16T23:31:57.484Z,6.67
2018-10-16T23:37:00.706Z,6.23
2018-10-16T23:42:03.881Z,7.30
2018-10-16T23:47:07.125Z,6.40
2018-10-16T23:52:10.324Z,6.30
2018-10-16T23:57:13.544Z,5.80
